createdAt,value
2022-08-25T00:00:02.033Z,2.70
2022-08-25T00:03:43.938Z,2.90
2022-08-25T00:07:19.133Z,3.20
2022-08-25T00:11:02.876Z,2.60
2022-08-25T00:14:36.789Z,2.60
2022-08-25T00:18:28.457Z,3.60
2022-08-25T00:22:09.208Z,2.80
2022-08-25T00:25:30.713Z,2.90
2022-08-25T00:29:09.599Z,2.90
2022-08-25T00:32:55.507Z,3.10
2022-08-25T00:36:40.879Z,3.10
2022-08-25T00:40:03.352Z,2.90
2022-08-25T00:43:42.536Z,3.10
2022-08-25T00:47:35.968Z,3.30
2022-08-25T00:50:58.435Z,4.10
2022-08-25T00:54:57.060Z,3.30
2022-08-25T00:58:39.685Z,3.80
2022-08-25T01:02:04.418Z,3.70
2022-08-25T01:05:41.030Z,3.50
2022-08-25T01:09:15.493Z,3.60
2022-08-25T01:13:34.155Z,3.90
2022-08-25T01:17:16.328Z,3.80
2022-08-25T01:20:38.571Z,3.10
2022-08-25T01:24:35.375Z,3.50
2022-08-25T01:27:57.789Z,2.90
2022-08-25T01:31:36.758Z,3.90
2022-08-25T01:35:30.440Z,3.60
2022-08-25T01:38:52.899Z,3.20
2022-08-25T01:43:06.145Z,3.70
2022-08-25T01:46:28.377Z,4.20
2022-08-25T01:50:24.466Z,3.30
2022-08-25T01:53:46.151Z,2.90
2022-08-25T01:57:22.845Z,3.40
2022-08-25T02:01:03.877Z,3.80
2022-08-25T02:04:37.535Z,3.50
2022-08-25T02:08:13.716Z,3.80
2022-08-25T02:12:09.160Z,3.50
2022-08-25T02:15:31.383Z,3.20
2022-08-25T02:19:10.285Z,3.50
2022-08-25T02:22:51.134Z,3.00
2022-08-25T02:26:22.523Z,3.50
2022-08-25T02:29:58.392Z,3.20
2022-08-25T02:33:35.532Z,3.00
2022-08-25T02:37:13.004Z,2.80
2022-08-25T02:40:49.433Z,2.40
2022-08-25T02:44:25.283Z,2.70
2022-08-25T02:48:03.216Z,3.10
2022-08-25T02:51:59.912Z,3.40
2022-08-25T02:55:42.375Z,3.00
2022-08-25T02:59:04.506Z,2.90
2022-08-25T03:02:41.551Z,3.60
2022-08-25T03:06:20.660Z,3.20
2022-08-25T03:09:54.393Z,3.10
2022-08-25T03:13:32.375Z,3.60
2022-08-25T03:17:08.963Z,3.60
2022-08-25T03:20:46.040Z,3.70
2022-08-25T03:24:40.179Z,3.30
2022-08-25T03:28:02.254Z,4.20
2022-08-25T03:31:39.808Z,3.60
2022-08-25T03:35:16.186Z,3.60
2022-08-25T03:38:53.118Z,3.70
2022-08-25T03:42:29.244Z,3.90
2022-08-25T03:46:06.482Z,4.20
2022-08-25T03:49:43.253Z,3.80
2022-08-25T03:53:38.755Z,2.80
2022-08-25T03:57:20.104Z,3.10
2022-08-25T04:00:42.235Z,2.50
2022-08-25T04:04:18.507Z,3.50
2022-08-25T04:07:55.959Z,3.70
2022-08-25T04:11:32.431Z,3.60
2022-08-25T04:15:10.743Z,4.20
2022-08-25T04:18:47.764Z,4.30
2022-08-25T04:22:22.572Z,3.60
2022-08-25T04:25:59.175Z,3.50
2022-08-25T04:29:35.939Z,3.90
2022-08-25T04:33:13.701Z,3.70
2022-08-25T04:36:52.572Z,3.60
2022-08-25T04:40:28.995Z,2.90
2022-08-25T04:44:04.195Z,3.10
2022-08-25T04:47:40.267Z,3.00
2022-08-25T04:51:20.147Z,4.10
2022-08-25T04:54:53.816Z,3.80
2022-08-25T04:58:30.605Z,3.90
2022-08-25T05:02:07.485Z,3.30
2022-08-25T05:05:44.015Z,3.10
2022-08-25T05:09:21.794Z,2.90
2022-08-25T05:12:57.559Z,3.90
2022-08-25T05:16:35.010Z,4.60
2022-08-25T05:20:11.238Z,3.80
2022-08-25T05:23:49.126Z,3.80
2022-08-25T05:27:24.546Z,3.90
2022-08-25T05:31:03.247Z,3.90
2022-08-25T05:34:38.365Z,4.00
2022-08-25T05:38:15.590Z,4.20
2022-08-25T05:41:52.120Z,4.90
2022-08-25T05:45:28.608Z,4.10
2022-08-25T05:49:05.330Z,3.80
2022-08-25T05:52:42.636Z,3.30
2022-08-25T05:56:20.343Z,3.30
2022-08-25T05:59:56.047Z,3.40
2022-08-25T06:03:52.723Z,3.10
2022-08-25T06:07:14.341Z,2.70
2022-08-25T06:10:54.131Z,2.80
2022-08-25T06:14:27.670Z,4.00
2022-08-25T06:18:05.251Z,3.20
2022-08-25T06:22:00.568Z,3.10
2022-08-25T06:25:24.833Z,2.40
2022-08-25T06:28:59.334Z,2.90
2022-08-25T06:32:37.778Z,2.50
2022-08-25T06:36:13.047Z,2.60
2022-08-25T06:40:10.516Z,3.30
2022-08-25T06:43:33.322Z,3.30
2022-08-25T06:47:09.829Z,3.20
2022-08-25T06:51:13.874Z,3.80
2022-08-25T06:54:36.482Z,2.50
2022-08-25T06:58:12.881Z,2.60
2022-08-25T07:01:49.589Z,3.50
2022-08-25T07:05:34.045Z,3.10
2022-08-25T07:09:08.634Z,3.20
2022-08-25T07:12:42.959Z,2.50
2022-08-25T07:16:21.017Z,3.20
2022-08-25T07:19:57.660Z,3.00
2022-08-25T07:23:33.495Z,2.60
2022-08-25T07:27:09.954Z,2.90
2022-08-25T07:30:51.854Z,3.60
2022-08-25T07:34:42.618Z,3.20
2022-08-25T07:38:10.220Z,3.40
2022-08-25T07:41:43.472Z,3.50
2022-08-25T07:45:21.974Z,3.80
2022-08-25T07:48:56.887Z,3.20
2022-08-25T07:52:55.442Z,3.10
2022-08-25T07:56:36.364Z,3.50
2022-08-25T08:00:18.127Z,3.80
2022-08-25T08:03:50.721Z,3.30
2022-08-25T08:07:22.938Z,3.00
2022-08-25T08:11:10.679Z,3.50
2022-08-25T08:14:33.263Z,4.00
2022-08-25T08:18:11.885Z,3.50
2022-08-25T08:21:48.735Z,3.70
2022-08-25T08:25:26.785Z,4.20
2022-08-25T08:29:01.269Z,3.90
2022-08-25T08:33:12.840Z,3.70
2022-08-25T08:36:57.642Z,3.90
2022-08-25T08:40:20.855Z,3.60
2022-08-25T08:44:42.158Z,4.40
2022-08-25T08:48:07.131Z,4.00
2022-08-25T08:51:54.254Z,5.00
2022-08-25T08:55:52.301Z,4.10
2022-08-25T08:59:30.326Z,4.60
2022-08-25T09:03:09.562Z,4.30
2022-08-25T09:06:51.747Z,4.60
2022-08-25T09:10:44.334Z,4.00
2022-08-25T09:14:12.866Z,4.80
2022-08-25T09:18:13.343Z,4.40
2022-08-25T09:22:33.545Z,3.90
2022-08-25T09:26:40.086Z,3.10
2022-08-25T09:30:08.020Z,3.50
2022-08-25T09:33:39.659Z,3.80
2022-08-25T09:37:16.777Z,4.00
2022-08-25T09:40:57.701Z,3.80
2022-08-25T09:44:49.736Z,4.20
2022-08-25T09:48:22.469Z,4.60
2022-08-25T09:51:48.403Z,4.00
2022-08-25T09:55:32.389Z,3.60
2022-08-25T09:59:34.670Z,4.50
2022-08-25T10:03:05.901Z,4.00
2022-08-25T10:06:43.830Z,4.40
2022-08-25T10:10:23.322Z,4.60
2022-08-25T10:13:51.914Z,4.60
2022-08-25T10:17:31.967Z,3.90
2022-08-25T10:21:15.942Z,3.90
2022-08-25T10:24:44.065Z,4.30
2022-08-25T10:28:41.532Z,4.40
2022-08-25T10:32:10.245Z,4.80
2022-08-25T10:35:55.238Z,4.20
2022-08-25T10:39:55.658Z,3.80
2022-08-25T10:44:06.096Z,3.70
2022-08-25T10:48:14.807Z,3.80
2022-08-25T10:52:03.713Z,4.40
2022-08-25T10:55:54.751Z,4.10
2022-08-25T10:59:39.769Z,4.80
2022-08-25T11:03:43.940Z,3.80
2022-08-25T11:07:19.671Z,3.60
2022-08-25T11:10:53.022Z,3.80
2022-08-25T11:14:40.065Z,4.50
2022-08-25T11:18:14.805Z,4.60
2022-08-25T11:21:46.450Z,4.00
2022-08-25T11:25:35.039Z,4.50
2022-08-25T11:29:18.163Z,4.60
2022-08-25T11:32:44.607Z,4.10
2022-08-25T11:36:37.555Z,4.10
2022-08-25T11:40:19.927Z,3.40
2022-08-25T11:44:11.616Z,3.80
2022-08-25T11:47:56.529Z,3.60
2022-08-25T11:51:44.530Z,3.70
2022-08-25T11:55:27.259Z,3.30
2022-08-25T11:58:51.763Z,3.80
2022-08-25T12:02:40.404Z,3.40
2022-08-25T12:06:17.047Z,4.00
2022-08-25T12:09:51.127Z,3.90
2022-08-25T12:13:40.786Z,3.60
2022-08-25T12:17:19.229Z,3.90
2022-08-25T12:20:53.605Z,5.30
2022-08-25T12:24:25.152Z,3.30
2022-08-25T12:28:04.934Z,4.00
2022-08-25T12:31:51.232Z,3.40
2022-08-25T12:35:40.520Z,5.00
2022-08-25T12:39:24.396Z,3.90
2022-08-25T12:42:47.302Z,3.40
2022-08-25T12:46:25.811Z,4.50
2022-08-25T12:53:51.084Z,3.80
2022-08-25T12:57:50.690Z,4.50
2022-08-25T13:01:51.158Z,3.50
2022-08-25T13:09:20.612Z,2.70
2022-08-25T13:13:10.753Z,3.10
2022-08-25T13:16:57.417Z,3.60
2022-08-25T14:00:43.442Z,2.60
2022-08-25T14:08:09.264Z,2.10
2022-08-25T14:15:18.520Z,2.40
2022-08-25T14:18:55.105Z,2.80
2022-08-25T14:22:29.243Z,2.80
2022-08-25T14:26:06.421Z,2.00
2022-08-25T14:29:43.378Z,2.20
2022-08-25T14:33:23.577Z,2.60
2022-08-25T14:37:20.063Z,2.60
2022-08-25T14:40:42.069Z,3.00
2022-08-25T14:44:18.536Z,2.60
2022-08-25T14:48:03.899Z,2.30
2022-08-25T14:51:33.870Z,2.50
2022-08-25T14:55:10.597Z,2.30
2022-08-25T14:59:04.993Z,2.00
2022-08-25T15:02:30.553Z,2.40
2022-08-25T15:06:05.163Z,1.80
2022-08-25T15:09:40.309Z,2.30
2022-08-25T15:13:17.358Z,2.40
2022-08-25T15:16:56.830Z,2.20
2022-08-25T15:20:30.478Z,2.40
2022-08-25T15:24:27.978Z,2.40
2022-08-25T15:28:10.088Z,2.30
2022-08-25T15:31:34.106Z,2.00
2022-08-25T15:35:08.820Z,2.50
2022-08-25T15:39:05.386Z,2.40
2022-08-25T15:42:46.332Z,2.40
2022-08-25T15:46:09.078Z,2.20
2022-08-25T15:50:08.744Z,2.60
2022-08-25T15:53:33.502Z,2.40
2022-08-25T15:57:26.705Z,2.10
2022-08-25T16:00:56.241Z,2.50
2022-08-25T16:18:58.410Z,2.20
2022-08-25T16:22:34.428Z,2.40
2022-08-25T16:26:12.964Z,2.30
2022-08-25T16:29:48.440Z,3.00
2022-08-25T16:33:24.784Z,2.90
2022-08-25T16:37:02.993Z,3.10
2022-08-25T16:40:42.554Z,2.40
2022-08-25T16:44:34.578Z,2.80
2022-08-25T16:48:15.014Z,2.30
2022-08-25T16:51:38.702Z,2.10
2022-08-25T16:55:14.204Z,2.30
2022-08-25T16:59:01.380Z,2.70
2022-08-25T17:02:47.233Z,2.10
2022-08-25T17:06:29.759Z,2.10
2022-08-25T17:09:53.175Z,2.10
2022-08-25T17:13:29.318Z,2.50
2022-08-25T17:17:07.067Z,2.20
2022-08-25T17:20:46.875Z,2.80
2022-08-25T17:24:37.558Z,2.00
2022-08-25T17:28:02.846Z,2.30
2022-08-25T17:31:40.252Z,2.10
2022-08-25T17:35:15.704Z,2.50
2022-08-25T17:39:14.067Z,2.80
2022-08-25T17:42:35.706Z,2.90
2022-08-25T17:46:12.955Z,2.60
2022-08-25T17:49:49.190Z,2.60
2022-08-25T17:53:26.451Z,2.40
2022-08-25T17:57:02.983Z,2.40
2022-08-25T18:00:44.022Z,2.50
2022-08-25T18:04:17.996Z,3.00
2022-08-25T18:07:54.660Z,2.80
2022-08-25T18:11:30.265Z,3.00
2022-08-25T18:15:08.119Z,2.50
2022-08-25T18:18:44.391Z,2.90
2022-08-25T18:22:20.252Z,3.30
2022-08-25T18:26:01.025Z,3.40
2022-08-25T18:29:34.083Z,2.80
2022-08-25T18:33:11.119Z,2.90
2022-08-25T18:36:48.836Z,3.10
2022-08-25T18:40:25.444Z,4.70
2022-08-25T18:44:20.429Z,4.10
2022-08-25T18:47:42.839Z,3.70
2022-08-25T18:51:19.455Z,4.70
2022-08-25T18:54:55.997Z,4.20
2022-08-25T18:58:36.084Z,4.10
2022-08-25T19:02:28.533Z,4.10
2022-08-25T19:05:52.829Z,3.20
2022-08-25T19:09:26.934Z,4.00
2022-08-25T19:13:07.996Z,4.30
2022-08-25T19:16:43.631Z,3.40
2022-08-25T19:20:18.103Z,3.10
2022-08-25T19:23:54.414Z,3.60
2022-08-25T19:27:51.617Z,3.70
2022-08-25T19:31:34.701Z,3.90
2022-08-25T19:34:56.673Z,3.70
2022-08-25T19:38:35.553Z,3.40
2022-08-25T19:42:36.683Z,3.50
2022-08-25T19:45:52.550Z,3.70
2022-08-25T19:49:34.502Z,3.70
2022-08-25T19:53:06.544Z,2.70
2022-08-25T19:56:54.974Z,3.70
2022-08-25T20:00:29.187Z,3.70
2022-08-25T20:03:56.994Z,4.40
2022-08-25T20:07:33.641Z,5.50
2022-08-25T20:11:09.950Z,5.40
2022-08-25T20:14:48.651Z,5.00
2022-08-25T20:18:23.410Z,4.80
2022-08-25T20:22:22.499Z,4.20
2022-08-25T20:25:47.528Z,3.80
2022-08-25T20:29:23.713Z,4.00
2022-08-25T20:33:22.561Z,4.50
2022-08-25T20:36:49.661Z,4.40
2022-08-25T20:40:25.419Z,4.10
2022-08-25T20:44:01.490Z,4.00
2022-08-25T20:47:55.640Z,4.20
2022-08-25T20:51:18.732Z,3.70
2022-08-25T20:54:55.228Z,4.00
2022-08-25T20:58:31.045Z,5.20
2022-08-25T21:02:07.964Z,4.40
2022-08-25T21:06:08.925Z,4.00
2022-08-25T21:09:30.238Z,3.80
2022-08-25T21:13:26.871Z,5.10
2022-08-25T21:16:49.558Z,6.10
2022-08-25T21:20:25.632Z,5.20
2022-08-25T21:24:24.557Z,4.70
2022-08-25T21:27:46.194Z,4.40
2022-08-25T21:31:23.624Z,4.80
2022-08-25T21:34:59.724Z,4.00
2022-08-25T21:38:39.960Z,4.40
2022-08-25T21:42:13.385Z,3.80
2022-08-25T21:45:50.357Z,4.00
2022-08-25T21:49:27.026Z,3.40
2022-08-25T21:53:08.176Z,4.20
2022-08-25T21:57:03.407Z,3.50
2022-08-25T22:00:44.312Z,4.50
2022-08-25T22:04:08.046Z,3.80
2022-08-25T22:07:44.015Z,5.10
2022-08-25T22:11:39.037Z,4.80
2022-08-25T22:15:00.943Z,3.70
2022-08-25T22:18:56.519Z,3.50
2022-08-25T22:22:21.058Z,5.30
2022-08-25T22:25:58.223Z,5.80
2022-08-25T22:29:52.221Z,6.50
2022-08-25T22:33:15.582Z,5.50
2022-08-25T22:36:51.760Z,6.00
2022-08-25T22:40:29.442Z,5.80
2022-08-25T22:44:25.143Z,5.50
2022-08-25T22:47:47.127Z,6.50
2022-08-25T22:51:26.697Z,5.40
2022-08-25T22:55:00.667Z,6.10
2022-08-25T22:58:38.435Z,5.60
2022-08-25T23:02:13.958Z,5.60
2022-08-25T23:05:50.928Z,5.70
2022-08-25T23:09:46.507Z,5.80
2022-08-25T23:13:08.799Z,5.70
2022-08-25T23:16:44.862Z,5.40
2022-08-25T23:20:45.245Z,4.20
2022-08-25T23:24:10.995Z,4.80
2022-08-25T23:27:45.322Z,5.00
2022-08-25T23:31:42.350Z,5.00
2022-08-25T23:35:05.675Z,4.60
2022-08-25T23:38:44.322Z,4.30
2022-08-25T23:42:21.593Z,4.60
2022-08-25T23:45:54.945Z,3.80
2022-08-25T23:49:50.530Z,3.50
2022-08-25T23:53:15.275Z,4.30
2022-08-25T23:56:52.281Z,4.00
